Time;durP1;ratioP1;P1;durP2;ratioP2;P2;SDS_P1;SDS_P2;PMS_P1;PMS_P2;Temp;Humidity;BMP_temperature;BMP_pressure;BME280_temperature;BME280_humidity;BME280_pressure;Samples;Min_cycle;Max_cycle;Signal;HPM_P1;HPM_P2
2023/08/30 00:02:13;;;;;;;6.50;6.00;;;14.10;99.90;;;;;;5035159;28;20597;-56
2023/08/30 00:04:43;;;;;;;8.47;7.67;;;14.10;99.90;;;;;;5037683;28;21176;-57
2023/08/30 00:07:11;;;;;;;12.90;11.70;;;14.10;99.90;;;;;;5039191;28;20561;-57
2023/08/30 00:09:41;;;;;;;22.03;20.00;;;14.10;99.90;;;;;;5037609;28;21002;-59
2023/08/30 00:12:09;;;;;;;17.60;15.90;;;14.00;99.90;;;;;;5040987;28;20502;-57
2023/08/30 00:14:37;;;;;;;16.17;14.67;;;14.00;99.90;;;;;;5033261;28;20494;-57
2023/08/30 00:17:05;;;;;;;13.77;12.37;;;14.00;99.90;;;;;;5040758;28;20474;-57
2023/08/30 00:19:33;;;;;;;13.63;12.23;;;14.00;99.90;;;;;;5043001;28;20546;-58
2023/08/30 00:22:01;;;;;;;12.53;11.43;;;14.00;99.90;;;;;;5036197;28;20597;-58
2023/08/30 00:24:29;;;;;;;11.03;10.03;;;14.00;99.90;;;;;;5037762;28;20522;-57
2023/08/30 00:26:59;;;;;;;11.43;10.30;;;14.00;99.90;;;;;;5042831;28;20502;-56
2023/08/30 00:29:27;;;;;;;9.93;9.03;;;13.90;99.90;;;;;;5042897;28;20552;-57
2023/08/30 00:31:55;;;;;;;8.90;8.10;;;13.90;99.90;;;;;;5042178;28;20839;-57
2023/08/30 00:34:23;;;;;;;9.37;8.47;;;13.90;99.90;;;;;;5042459;28;22766;-57
2023/08/30 00:36:51;;;;;;;8.67;7.87;;;13.80;99.90;;;;;;5038277;28;22307;-57
2023/08/30 00:39:19;;;;;;;9.07;8.17;;;13.80;99.90;;;;;;5039547;28;20472;-57
2023/08/30 00:41:46;;;;;;;10.67;9.77;;;13.80;99.90;;;;;;5043546;28;21064;-57
2023/08/30 00:44:16;;;;;;;13.00;11.70;;;13.80;99.90;;;;;;5035900;28;20489;-57
2023/08/30 00:46:44;;;;;;;15.50;13.90;;;13.70;99.90;;;;;;5031673;28;20514;-57
2023/08/30 00:49:12;;;;;;;15.00;13.67;;;13.70;99.90;;;;;;5037248;28;20481;-57
2023/08/30 00:51:41;;;;;;;14.67;13.27;;;13.70;99.90;;;;;;5040320;28;20565;-57
2023/08/30 00:54:09;;;;;;;14.67;13.27;;;13.60;99.90;;;;;;5039996;28;20541;-56
2023/08/30 00:56:37;;;;;;;14.80;13.40;;;13.60;99.90;;;;;;5037610;28;20483;-57
2023/08/30 00:59:05;;;;;;;13.23;11.90;;;13.60;99.90;;;;;;5032210;28;20584;-57
2023/08/30 01:01:35;;;;;;;12.60;11.50;;;13.60;99.90;;;;;;5036996;28;20467;-57
2023/08/30 01:04:04;;;;;;;12.57;11.47;;;13.60;99.90;;;;;;5035022;28;20857;-56
2023/08/30 01:06:32;;;;;;;12.57;11.30;;;13.50;99.90;;;;;;5039611;28;20501;-58
2023/08/30 01:09:00;;;;;;;11.33;10.33;;;13.50;99.90;;;;;;5038140;28;20553;-57
2023/08/30 01:11:37;;;;;;;10.70;9.70;;;13.50;99.90;;;;;;5044938;28;20565;-57
2023/08/30 01:14:08;;;;;;;10.23;9.17;;;13.50;99.90;;;;;;5045995;28;20525;-57
2023/08/30 01:16:38;;;;;;;13.50;12.30;;;13.50;99.90;;;;;;5040543;28;20587;-57
2023/08/30 01:19:18;;;;;;;15.50;14.00;;;13.40;99.90;;;;;;5042710;28;20473;-57
2023/08/30 01:21:54;;;;;;;13.63;12.33;;;13.40;99.90;;;;;;5039617;28;20565;-57
2023/08/30 01:24:29;;;;;;;12.73;11.60;;;13.40;99.90;;;;;;5040363;28;20572;-58
2023/08/30 01:27:20;;;;;;;10.43;9.40;;;13.40;99.90;;;;;;5047152;28;20521;-57
2023/08/30 01:29:50;;;;;;;12.37;11.27;;;13.40;99.90;;;;;;5039629;28;20557;-56
2023/08/30 01:32:20;;;;;;;11.13;10.13;;;13.40;99.90;;;;;;5043965;28;20574;-57
2023/08/30 01:34:50;;;;;;;9.93;8.93;;;13.50;99.90;;;;;;5044778;28;20487;-57
2023/08/30 01:37:18;;;;;;;9.17;8.37;;;13.50;99.90;;;;;;5043441;28;20498;-57
2023/08/30 01:39:47;;;;;;;7.90;7.30;;;13.50;99.90;;;;;;5037975;28;20590;-57
2023/08/30 01:42:21;;;;;;;7.20;6.60;;;13.50;99.90;;;;;;5043271;28;20466;-57
2023/08/30 01:44:54;;;;;;;7.80;7.10;;;13.40;99.90;;;;;;5035805;28;20479;-56
2023/08/30 01:47:24;;;;;;;7.30;6.70;;;13.40;99.90;;;;;;5031855;28;20500;-57
2023/08/30 01:49:56;;;;;;;8.93;6.30;;;13.40;99.90;;;;;;5033234;28;20466;-57
2023/08/30 01:52:25;;;;;;;6.73;6.23;;;13.40;99.90;;;;;;5036773;28;20919;-56
2023/08/30 01:54:54;;;;;;;6.07;5.57;;;13.30;99.90;;;;;;5038571;28;20490;-57
2023/08/30 01:57:22;;;;;;;6.10;5.50;;;13.30;99.90;;;;;;5039074;28;20463;-58
2023/08/30 01:59:52;;;;;;;6.80;6.20;;;13.30;99.90;;;;;;5036244;28;20553;-57
2023/08/30 02:02:20;;;;;;;6.10;5.60;;;13.30;99.90;;;;;;5035286;28;20557;-57
2023/08/30 02:04:48;;;;;;;5.40;5.00;;;13.20;99.90;;;;;;5042881;28;20526;-58
2023/08/30 02:07:21;;;;;;;5.83;5.33;;;13.20;99.90;;;;;;5039582;28;20568;-56
2023/08/30 02:09:55;;;;;;;5.70;5.10;;;13.20;99.90;;;;;;5039067;28;21022;-57
2023/08/30 02:12:25;;;;;;;5.70;5.20;;;13.20;99.90;;;;;;5044505;28;20556;-57
2023/08/30 02:14:55;;;;;;;5.37;4.97;;;13.20;99.90;;;;;;5038580;28;20562;-57
2023/08/30 02:17:24;;;;;;;5.93;5.43;;;13.20;99.90;;;;;;5037414;28;20561;-57
2023/08/30 02:19:53;;;;;;;5.93;5.40;;;13.20;99.90;;;;;;5041746;28;20480;-57
2023/08/30 02:22:21;;;;;;;5.60;5.20;;;13.20;99.90;;;;;;5038299;28;20979;-57
2023/08/30 02:24:49;;;;;;;5.77;5.27;;;13.20;99.90;;;;;;5040076;28;20486;-57
2023/08/30 02:27:17;;;;;;;6.30;5.47;;;13.20;99.90;;;;;;5041595;28;20566;-57
2023/08/30 02:29:45;;;;;;;5.77;5.37;;;13.20;99.90;;;;;;5038292;28;20602;-55
2023/08/30 02:32:15;;;;;;;5.67;5.17;;;13.20;99.90;;;;;;5033339;28;20476;-54
2023/08/30 02:34:43;;;;;;;6.00;5.50;;;13.20;99.90;;;;;;5030943;28;20546;-55
2023/08/30 02:37:10;;;;;;;5.83;4.73;;;13.20;99.90;;;;;;5033401;28;20514;-54
2023/08/30 02:39:38;;;;;;;4.80;4.40;;;13.20;99.90;;;;;;5035724;28;20512;-54
2023/08/30 02:42:06;;;;;;;4.87;4.33;;;13.20;99.90;;;;;;5034860;28;20578;-54
2023/08/30 02:44:34;;;;;;;5.87;5.40;;;13.20;99.90;;;;;;5040291;28;20478;-54
2023/08/30 02:47:03;;;;;;;4.60;4.20;;;13.20;99.90;;;;;;5038125;28;20482;-57
2023/08/30 02:49:32;;;;;;;4.90;4.50;;;13.20;99.90;;;;;;5037661;28;20573;-54
2023/08/30 02:52:00;;;;;;;5.17;4.67;;;13.20;99.90;;;;;;5035665;28;20473;-55
2023/08/30 02:54:28;;;;;;;5.37;4.97;;;13.30;99.90;;;;;;5037609;28;20494;-55
2023/08/30 02:56:56;;;;;;;5.23;4.83;;;13.20;99.90;;;;;;5040454;28;20497;-55
2023/08/30 02:59:24;;;;;;;4.73;4.33;;;13.20;99.90;;;;;;5034916;28;21006;-55
2023/08/30 03:01:52;;;;;;;4.90;4.50;;;13.20;99.90;;;;;;5026593;28;20467;-58
2023/08/30 03:04:20;;;;;;;4.57;4.17;;;13.20;99.90;;;;;;5039269;28;20577;-57
2023/08/30 03:06:49;;;;;;;5.40;4.90;;;13.20;99.90;;;;;;5039015;28;20486;-57
2023/08/30 03:09:17;;;;;;;4.77;4.47;;;13.30;99.90;;;;;;5041388;28;20464;-57
2023/08/30 03:11:45;;;;;;;4.50;4.10;;;13.30;99.90;;;;;;5040221;28;20500;-57
2023/08/30 03:14:15;;;;;;;4.80;4.40;;;13.30;99.90;;;;;;5039484;28;20514;-57
2023/08/30 03:16:45;;;;;;;5.33;4.77;;;13.30;99.90;;;;;;5035416;28;20569;-57
2023/08/30 03:19:12;;;;;;;5.30;4.80;;;13.30;99.90;;;;;;5037223;28;20535;-58
2023/08/30 03:21:40;;;;;;;4.90;4.50;;;13.30;99.90;;;;;;5038370;28;20540;-57
2023/08/30 03:24:10;;;;;;;5.30;4.90;;;13.30;99.90;;;;;;5040054;28;20548;-57
2023/08/30 03:26:38;;;;;;;5.40;5.00;;;13.30;99.90;;;;;;5040363;28;20478;-57
2023/08/30 03:29:06;;;;;;;5.20;4.80;;;13.30;99.90;;;;;;5038673;28;20471;-57
2023/08/30 03:31:34;;;;;;;5.60;5.20;;;13.30;99.90;;;;;;5041378;28;20475;-57
2023/08/30 03:34:02;;;;;;;6.03;4.73;;;13.30;99.90;;;;;;5040663;28;20486;-56
2023/08/30 03:36:30;;;;;;;5.53;5.03;;;13.30;99.90;;;;;;5042643;28;20493;-57
2023/08/30 03:38:58;;;;;;;5.17;4.73;;;13.30;99.90;;;;;;5037201;28;20557;-56
2023/08/30 03:41:27;;;;;;;5.43;5.03;;;13.30;99.90;;;;;;5038541;28;20538;-56
2023/08/30 03:43:55;;;;;;;5.93;5.47;;;13.40;99.90;;;;;;5040960;28;20581;-57
2023/08/30 03:46:23;;;;;;;7.17;6.50;;;13.40;99.90;;;;;;5032242;28;22785;-57
2023/08/30 03:48:51;;;;;;;6.17;5.60;;;13.40;99.90;;;;;;5037064;28;20466;-57
2023/08/30 03:51:20;;;;;;;5.60;5.20;;;13.50;99.90;;;;;;5028229;28;20575;-57
2023/08/30 03:53:48;;;;;;;6.47;5.87;;;13.50;99.90;;;;;;5037043;28;20473;-57
2023/08/30 03:56:15;;;;;;;7.20;6.60;;;13.50;99.90;;;;;;5033245;28;20597;-56
2023/08/30 03:58:46;;;;;;;8.30;7.50;;;13.60;99.90;;;;;;5038475;28;20999;-57
2023/08/30 04:01:14;;;;;;;6.63;6.10;;;13.60;99.90;;;;;;5033703;28;20579;-57
2023/08/30 04:03:42;;;;;;;7.47;6.67;;;13.60;99.90;;;;;;5031143;28;20474;-58
2023/08/30 04:06:10;;;;;;;8.60;7.80;;;13.60;99.90;;;;;;5033379;28;20491;-56
2023/08/30 04:08:38;;;;;;;8.70;7.90;;;13.70;99.90;;;;;;5044959;28;20528;-57
2023/08/30 04:11:06;;;;;;;8.13;7.40;;;13.70;99.90;;;;;;5041445;28;20481;-58
2023/08/30 04:13:35;;;;;;;9.10;7.63;;;13.70;99.90;;;;;;5042195;28;21045;-57
2023/08/30 04:16:04;;;;;;;9.30;8.57;;;13.70;99.90;;;;;;5036889;28;20487;-57
2023/08/30 04:18:32;;;;;;;9.77;8.87;;;13.70;99.90;;;;;;5038662;28;20957;-58
2023/08/30 04:21:02;;;;;;;9.33;8.43;;;13.80;99.90;;;;;;5037523;28;21011;-57
2023/08/30 04:23:30;;;;;;;9.53;8.70;;;13.80;99.90;;;;;;5041258;28;20561;-57
2023/08/30 04:25:58;;;;;;;8.73;8.03;;;13.90;99.90;;;;;;5043280;28;20486;-57
2023/08/30 04:28:27;;;;;;;9.77;8.87;;;13.90;99.90;;;;;;5042775;28;20474;-58
2023/08/30 04:30:55;;;;;;;9.40;8.60;;;13.90;99.90;;;;;;5041179;28;20478;-57
2023/08/30 04:33:24;;;;;;;10.03;8.87;;;13.90;99.90;;;;;;5037152;28;21540;-57
2023/08/30 04:35:53;;;;;;;8.80;8.00;;;13.90;99.90;;;;;;5036960;28;20578;-57
2023/08/30 04:38:21;;;;;;;9.17;8.37;;;14.00;99.90;;;;;;5035129;28;20557;-57
2023/08/30 04:40:49;;;;;;;8.57;7.87;;;14.00;99.90;;;;;;5040756;28;20549;-57
2023/08/30 04:43:17;;;;;;;8.97;8.17;;;14.00;99.90;;;;;;5037613;28;20478;-57
2023/08/30 04:45:48;;;;;;;8.70;7.73;;;14.00;99.90;;;;;;5032621;28;20581;-57
2023/08/30 04:48:16;;;;;;;8.00;7.40;;;14.00;99.90;;;;;;5037703;28;20466;-57
2023/08/30 04:50:46;;;;;;;8.90;8.20;;;14.00;99.90;;;;;;5038704;28;20548;-57
2023/08/30 04:53:13;;;;;;;10.30;9.30;;;14.00;99.90;;;;;;5032557;28;20480;-56
2023/08/30 04:55:41;;;;;;;9.70;8.90;;;14.00;99.90;;;;;;5033970;28;20496;-57
2023/08/30 04:58:09;;;;;;;9.30;8.50;;;14.10;99.90;;;;;;5032279;28;20545;-57
2023/08/30 05:00:38;;;;;;;10.30;9.30;;;14.10;99.90;;;;;;5031794;28;20462;-57
2023/08/30 05:03:06;;;;;;;10.30;9.30;;;14.20;99.90;;;;;;5027946;28;20482;-58
2023/08/30 05:05:34;;;;;;;10.10;9.10;;;14.20;99.90;;;;;;5034473;28;20708;-58
2023/08/30 05:08:04;;;;;;;9.73;8.83;;;14.30;99.90;;;;;;5037620;28;20470;-58
2023/08/30 05:10:33;;;;;;;10.27;9.30;;;14.30;99.90;;;;;;5040464;28;20573;-58
2023/08/30 05:13:01;;;;;;;10.87;9.77;;;14.30;99.90;;;;;;5039321;28;20588;-58
2023/08/30 05:15:29;;;;;;;10.70;9.50;;;14.40;99.90;;;;;;5039591;28;20483;-58
2023/08/30 05:17:57;;;;;;;9.97;9.07;;;14.50;99.90;;;;;;5027625;28;20632;-58
2023/08/30 05:20:25;;;;;;;9.70;8.73;;;14.50;99.90;;;;;;5034454;28;20474;-61
2023/08/30 05:22:53;;;;;;;10.57;9.50;;;14.60;99.90;;;;;;5036213;28;20520;-58
2023/08/30 05:25:23;;;;;;;11.20;10.10;;;14.60;99.90;;;;;;5037441;28;21093;-58
2023/08/30 05:27:51;;;;;;;11.27;10.17;;;14.60;99.90;;;;;;5032067;28;20549;-59
2023/08/30 05:30:19;;;;;;;10.40;9.50;;;14.70;99.90;;;;;;5029073;28;20470;-58
2023/08/30 05:32:47;;;;;;;10.33;9.33;;;14.60;99.90;;;;;;5025110;28;20479;-58
2023/08/30 05:35:15;;;;;;;10.67;9.67;;;14.60;99.90;;;;;;5029296;28;21024;-57
2023/08/30 05:37:43;;;;;;;11.10;10.20;;;14.60;99.90;;;;;;5034645;28;20585;-57
2023/08/30 05:40:15;;;;;;;11.27;10.37;;;14.70;99.90;;;;;;5036441;28;20941;-57
2023/08/30 05:42:45;;;;;;;10.63;9.70;;;14.70;99.90;;;;;;5038744;28;20520;-57
2023/08/30 05:45:13;;;;;;;10.53;9.53;;;14.70;99.90;;;;;;5034769;28;20540;-56
2023/08/30 05:47:41;;;;;;;10.37;9.53;;;14.80;99.90;;;;;;5008876;28;20479;-57
2023/08/30 05:50:10;;;;;;;11.70;10.03;;;14.80;99.90;;;;;;5013682;28;21027;-56
2023/08/30 05:52:41;;;;;;;11.63;10.60;;;14.80;99.90;;;;;;5015435;28;20597;-57
2023/08/30 05:55:09;;;;;;;11.00;10.00;;;14.90;99.90;;;;;;5021313;28;20494;-56
2023/08/30 05:57:38;;;;;;;9.93;9.03;;;14.90;99.90;;;;;;5025923;28;20494;-56
2023/08/30 06:00:09;;;;;;;11.90;10.90;;;14.90;99.90;;;;;;5026229;28;20627;-57
2023/08/30 06:02:37;;;;;;;12.03;10.43;;;14.90;99.90;;;;;;5022319;28;20477;-58
2023/08/30 06:05:06;;;;;;;11.60;10.50;;;15.00;99.90;;;;;;5027968;28;20516;-57
2023/08/30 06:07:34;;;;;;;10.90;10.00;;;15.00;99.90;;;;;;5027672;28;20494;-57
2023/08/30 06:10:03;;;;;;;10.27;9.37;;;15.00;99.90;;;;;;5023622;28;20878;-59
2023/08/30 06:12:31;;;;;;;11.87;10.77;;;15.00;99.90;;;;;;5024068;28;20478;-57
2023/08/30 06:14:59;;;;;;;11.17;10.10;;;15.00;99.90;;;;;;5027589;28;20865;-58
2023/08/30 06:17:28;;;;;;;11.20;10.10;;;15.10;99.90;;;;;;5023810;28;20537;-57
2023/08/30 06:19:56;;;;;;;11.77;10.13;;;15.20;99.90;;;;;;5020590;28;20502;-58
2023/08/30 06:22:24;;;;;;;10.20;9.30;;;15.30;99.90;;;;;;5025787;28;20469;-58
2023/08/30 06:24:52;;;;;;;10.37;9.53;;;15.30;99.90;;;;;;5026903;28;20483;-57
2023/08/30 06:27:20;;;;;;;10.53;9.63;;;15.30;99.90;;;;;;5029103;28;20563;-58
2023/08/30 06:29:48;;;;;;;10.77;9.30;;;15.40;99.90;;;;;;5019901;28;20487;-57
2023/08/30 06:32:16;;;;;;;10.00;9.03;;;15.50;99.90;;;;;;5021208;28;22350;-57
2023/08/30 06:34:46;;;;;;;9.97;9.00;;;15.50;99.90;;;;;;5019515;28;20559;-56
2023/08/30 06:37:14;;;;;;;9.23;8.43;;;15.60;99.90;;;;;;5026117;28;20923;-57
2023/08/30 06:39:42;;;;;;;11.20;8.60;;;15.60;99.90;;;;;;5029811;28;20894;-57
2023/08/30 06:42:10;;;;;;;9.50;8.63;;;15.70;99.90;;;;;;5023583;28;20543;-57
2023/08/30 06:44:38;;;;;;;9.17;8.27;;;15.80;99.90;;;;;;5025952;28;20482;-57
2023/08/30 06:47:06;;;;;;;12.13;9.50;;;15.80;99.90;;;;;;5033311;28;20549;-58
2023/08/30 06:49:34;;;;;;;8.80;7.97;;;15.80;99.90;;;;;;5026617;28;21004;-58
2023/08/30 06:52:04;;;;;;;10.47;8.90;;;15.80;99.90;;;;;;5024429;28;20900;-57
2023/08/30 06:54:35;;;;;;;9.30;8.50;;;15.90;99.90;;;;;;5027821;28;20498;-58
2023/08/30 06:57:05;;;;;;;8.97;8.17;;;16.00;99.90;;;;;;5032751;28;20609;-58
2023/08/30 06:59:34;;;;;;;8.80;8.00;;;16.00;99.90;;;;;;5030948;28;20569;-57
2023/08/30 07:02:02;;;;;;;9.30;8.50;;;16.00;99.90;;;;;;5023812;28;20612;-57
2023/08/30 07:04:30;;;;;;;10.00;9.10;;;16.10;99.90;;;;;;5027715;28;20936;-58
2023/08/30 07:06:58;;;;;;;9.40;8.50;;;16.20;99.90;;;;;;5022952;28;20474;-57
2023/08/30 07:09:29;;;;;;;9.00;8.10;;;16.20;99.90;;;;;;5032757;28;20477;-58
2023/08/30 07:11:57;;;;;;;9.00;8.20;;;16.30;99.90;;;;;;5025004;28;20470;-57
2023/08/30 07:14:26;;;;;;;9.93;9.10;;;16.40;99.90;;;;;;5020423;28;20980;-57
2023/08/30 07:16:54;;;;;;;9.80;8.90;;;16.40;99.90;;;;;;5033139;28;20548;-57
2023/08/30 07:19:22;;;;;;;8.97;8.17;;;16.40;99.90;;;;;;5037119;28;20502;-58
2023/08/30 07:21:49;;;;;;;10.00;9.10;;;16.50;99.90;;;;;;5030731;28;21009;-58
2023/08/30 07:24:17;;;;;;;10.57;9.67;;;16.60;99.90;;;;;;5034798;28;20573;-57
2023/08/30 07:26:47;;;;;;;9.00;8.30;;;16.70;99.90;;;;;;5025107;28;20621;-56
2023/08/30 07:29:15;;;;;;;10.00;8.97;;;16.70;99.90;;;;;;5039050;28;20476;-58
2023/08/30 07:31:43;;;;;;;8.77;8.07;;;16.70;99.90;;;;;;5037938;28;20549;-58
2023/08/30 07:34:12;;;;;;;8.13;7.47;;;16.70;99.90;;;;;;5033168;28;20581;-58
2023/08/30 07:36:40;;;;;;;9.30;8.50;;;16.70;99.90;;;;;;5025856;28;21084;-58
2023/08/30 07:39:15;;;;;;;8.73;8.00;;;16.80;99.90;;;;;;5027169;28;20563;-58
2023/08/30 07:41:43;;;;;;;9.40;8.67;;;16.80;99.90;;;;;;5036127;28;20466;-58
2023/08/30 07:44:12;;;;;;;9.47;8.60;;;16.90;99.90;;;;;;5035772;28;20611;-58
2023/08/30 07:46:40;;;;;;;8.97;8.13;;;17.00;99.90;;;;;;5031141;28;20609;-58
2023/08/30 07:49:08;;;;;;;9.23;8.53;;;17.00;99.90;;;;;;5027160;28;20501;-58
2023/08/30 07:51:36;;;;;;;9.80;8.80;;;17.00;99.90;;;;;;5025895;28;20495;-58
2023/08/30 07:54:05;;;;;;;10.47;9.50;;;17.00;99.90;;;;;;5029097;28;20593;-58
2023/08/30 07:56:33;;;;;;;10.83;9.83;;;17.10;99.90;;;;;;5027706;28;20494;-57
2023/08/30 07:59:01;;;;;;;12.40;11.40;;;17.00;99.90;;;;;;5037036;28;20870;-58
2023/08/30 08:01:31;;;;;;;12.60;11.50;;;17.10;99.90;;;;;;5031996;28;20471;-58
2023/08/30 08:03:59;;;;;;;13.07;11.70;;;17.00;99.90;;;;;;5037695;28;20490;-58
2023/08/30 08:06:34;;;;;;;12.30;10.50;;;17.00;99.90;;;;;;5027951;28;21037;-58
2023/08/30 08:09:05;;;;;;;12.07;11.07;;;17.00;99.90;;;;;;5037023;28;20959;-57
2023/08/30 08:11:33;;;;;;;11.90;10.80;;;17.10;99.90;;;;;;5027809;28;20477;-57
2023/08/30 08:14:01;;;;;;;12.07;10.97;;;17.20;99.90;;;;;;5033898;28;20503;-58
2023/08/30 08:16:32;;;;;;;11.47;10.50;;;17.20;99.90;;;;;;5039258;28;20486;-57
2023/08/30 08:19:01;;;;;;;13.30;12.07;;;17.30;99.90;;;;;;5036587;28;20577;-58
2023/08/30 08:21:29;;;;;;;13.97;12.57;;;17.40;99.90;;;;;;5033102;28;20470;-58
2023/08/30 08:23:57;;;;;;;12.50;11.40;;;17.40;99.90;;;;;;5030915;28;21202;-58
2023/08/30 08:26:26;;;;;;;11.87;10.90;;;17.40;99.90;;;;;;5034537;28;20574;-58
2023/08/30 08:28:54;;;;;;;11.93;10.73;;;17.40;99.90;;;;;;5033749;28;20462;-58
2023/08/30 08:31:23;;;;;;;11.07;9.97;;;17.50;99.90;;;;;;5037029;28;21274;-57
2023/08/30 08:34:06;;;;;;;9.40;8.60;;;17.50;99.90;;;;;;5031848;28;20495;-58
2023/08/30 08:36:34;;;;;;;10.47;9.50;;;17.60;99.90;;;;;;5026775;28;20491;-57
2023/08/30 08:39:04;;;;;;;10.73;9.60;;;17.70;99.90;;;;;;5032076;28;20495;-57
2023/08/30 08:41:39;;;;;;;11.00;10.10;;;17.80;99.90;;;;;;5029220;28;20946;-58
2023/08/30 08:44:08;;;;;;;11.13;10.03;;;17.80;99.90;;;;;;5026736;28;22323;-58
2023/08/30 08:46:38;;;;;;;9.83;8.83;;;17.80;99.90;;;;;;5033594;28;20501;-58
2023/08/30 08:49:11;;;;;;;10.27;9.30;;;18.00;99.90;;;;;;5034288;28;21097;-58
2023/08/30 08:51:40;;;;;;;9.70;8.70;;;18.00;99.90;;;;;;5038031;28;20482;-58
2023/08/30 08:54:10;;;;;;;8.87;8.03;;;18.00;99.90;;;;;;5038628;28;20489;-58
2023/08/30 08:56:38;;;;;;;8.10;7.20;;;18.10;99.90;;;;;;5031363;28;20581;-58
2023/08/30 08:59:08;;;;;;;7.90;7.13;;;18.10;99.90;;;;;;5030028;28;20495;-58
2023/08/30 09:01:39;;;;;;;8.50;7.70;;;18.20;99.90;;;;;;5023147;28;20972;-58
2023/08/30 09:04:11;;;;;;;7.30;6.70;;;18.30;99.90;;;;;;5036096;28;20570;-59
2023/08/30 09:06:40;;;;;;;8.20;7.50;;;18.30;99.90;;;;;;5028821;28;20541;-57
2023/08/30 09:09:09;;;;;;;7.57;6.97;;;18.30;99.90;;;;;;5037980;28;20489;-59
2023/08/30 09:11:37;;;;;;;6.50;5.90;;;18.30;99.90;;;;;;5039782;28;20557;-59
2023/08/30 09:14:10;;;;;;;7.23;6.50;;;18.40;99.90;;;;;;5034701;28;20482;-57
2023/08/30 09:16:38;;;;;;;6.10;5.60;;;18.40;99.90;;;;;;5036546;28;20487;-57
2023/08/30 09:19:07;;;;;;;6.37;5.57;;;18.50;99.90;;;;;;5037605;28;20605;-58
2023/08/30 09:21:39;;;;;;;7.30;6.60;;;18.50;99.90;;;;;;5029154;28;20509;-57
2023/08/30 09:24:08;;;;;;;8.63;7.23;;;18.60;99.90;;;;;;5034514;28;20858;-58
2023/08/30 09:26:37;;;;;;;7.33;6.47;;;18.60;99.90;;;;;;5021449;28;20486;-58
2023/08/30 09:29:06;;;;;;;7.70;6.90;;;18.70;99.90;;;;;;5036999;28;20463;-57
2023/08/30 09:31:34;;;;;;;7.57;6.87;;;18.80;99.90;;;;;;5034068;28;20505;-59
2023/08/30 09:34:02;;;;;;;8.23;7.40;;;18.80;99.90;;;;;;5033075;28;20517;-59
2023/08/30 09:36:38;;;;;;;6.80;6.10;;;18.90;99.90;;;;;;5024975;28;20482;-58
2023/08/30 09:39:09;;;;;;;6.63;6.03;;;19.00;99.90;;;;;;5034560;28;20919;-59
2023/08/30 09:41:37;;;;;;;7.50;6.77;;;19.00;99.90;;;;;;5030930;28;21008;-58
2023/08/30 09:44:10;;;;;;;6.40;5.80;;;19.00;99.90;;;;;;5032821;28;20569;-57
2023/08/30 09:46:43;;;;;;;6.97;5.93;;;19.00;99.90;;;;;;5031009;28;20493;-58
2023/08/30 09:49:21;;;;;;;5.53;5.03;;;19.00;99.90;;;;;;5037597;28;20505;-58
2023/08/30 09:51:52;;;;;;;6.60;6.00;;;19.00;99.90;;;;;;5037210;28;20466;-58
2023/08/30 09:54:43;;;;;;;6.20;5.03;;;19.00;99.90;;;;;;5029017;28;21002;-57
2023/08/30 09:57:13;;;;;;;6.13;5.13;;;19.00;99.90;;;;;;5025247;28;20466;-57
2023/08/30 09:59:41;;;;;;;5.77;5.30;;;18.90;99.90;;;;;;5025645;28;21994;-57
2023/08/30 10:02:10;;;;;;;4.90;4.57;;;18.90;99.90;;;;;;5029169;28;20513;-58
2023/08/30 10:04:40;;;;;;;5.50;5.10;;;18.80;99.90;;;;;;5034143;28;20495;-58
2023/08/30 10:07:11;;;;;;;6.00;5.50;;;18.90;99.90;;;;;;5024635;28;20478;-58
2023/08/30 10:09:40;;;;;;;5.30;4.80;;;18.90;99.90;;;;;;5036340;28;20544;-59
2023/08/30 10:12:22;;;;;;;5.80;5.30;;;18.90;99.90;;;;;;5038591;28;20478;-59
2023/08/30 10:14:50;;;;;;;4.87;4.47;;;18.90;99.90;;;;;;5030772;28;21104;-58
2023/08/30 10:17:22;;;;;;;6.70;5.87;;;18.90;99.90;;;;;;5031075;28;20562;-59
2023/08/30 10:19:51;;;;;;;5.93;5.33;;;19.00;99.90;;;;;;5027420;28;20516;-58
2023/08/30 10:22:22;;;;;;;6.53;5.93;;;18.90;99.90;;;;;;5028180;28;20552;-59
2023/08/30 10:24:57;;;;;;;5.20;4.80;;;18.90;99.90;;;;;;5031629;28;20474;-58
2023/08/30 10:27:47;;;;;;;4.50;4.10;;;19.00;99.90;;;;;;5025586;28;20464;-58
2023/08/30 10:30:17;;;;;;;5.20;4.70;;;19.00;99.90;;;;;;5031624;28;20568;-57
2023/08/30 10:32:46;;;;;;;5.23;4.73;;;19.10;99.90;;;;;;5023647;28;20466;-58
2023/08/30 10:35:15;;;;;;;5.07;4.57;;;19.10;99.90;;;;;;5028727;28;20494;-59
2023/08/30 10:37:55;;;;;;;5.50;4.63;;;19.10;99.90;;;;;;5024822;28;20545;-58
2023/08/30 10:40:23;;;;;;;6.67;5.10;;;19.10;99.90;;;;;;5034957;28;21014;-59
2023/08/30 10:43:02;;;;;;;5.20;4.33;;;19.10;99.90;;;;;;5025739;28;20533;-57
2023/08/30 10:45:30;;;;;;;4.47;4.10;;;19.20;99.90;;;;;;5030531;28;20549;-58
2023/08/30 10:48:00;;;;;;;5.57;5.07;;;19.40;99.90;;;;;;5016778;28;20609;-58
2023/08/30 10:50:32;;;;;;;4.90;4.60;;;19.60;99.90;;;;;;5023372;28;20983;-59
2023/08/30 10:53:04;;;;;;;5.63;5.23;;;19.80;99.90;;;;;;5033062;28;20470;-59
2023/08/30 10:55:32;;;;;;;4.97;4.57;;;19.90;99.90;;;;;;5027643;28;20514;-59
2023/08/30 10:58:02;;;;;;;6.93;4.80;;;19.90;99.90;;;;;;5016597;28;20490;-57
2023/08/30 11:00:31;;;;;;;5.00;4.57;;;20.00;99.90;;;;;;5019455;28;20490;-58
2023/08/30 11:03:00;;;;;;;6.07;5.57;;;20.00;99.90;;;;;;5034315;28;20474;-58
2023/08/30 11:05:30;;;;;;;4.80;4.30;;;20.00;99.90;;;;;;5021100;28;20494;-58
2023/08/30 11:07:58;;;;;;;4.67;4.27;;;20.00;99.90;;;;;;5025272;28;20846;-58
2023/08/30 11:10:27;;;;;;;5.10;4.47;;;20.00;99.90;;;;;;5026071;28;21107;-57
2023/08/30 11:12:57;;;;;;;4.30;4.00;;;20.10;99.90;;;;;;5018290;28;20469;-57
2023/08/30 11:15:27;;;;;;;5.00;4.57;;;20.30;99.90;;;;;;5013812;28;21275;-58
2023/08/30 11:18:04;;;;;;;4.60;4.20;;;20.40;99.90;;;;;;5004562;28;20477;-58
2023/08/30 11:20:32;;;;;;;5.10;4.70;;;20.40;99.90;;;;;;5012137;28;20497;-58
2023/08/30 11:23:03;;;;;;;5.37;4.93;;;20.50;99.90;;;;;;5012162;28;20550;-58
2023/08/30 11:25:32;;;;;;;5.27;4.77;;;20.50;99.90;;;;;;5017833;28;20644;-58
2023/08/30 11:28:04;;;;;;;5.87;5.37;;;20.50;99.90;;;;;;5026503;28;20482;-58
2023/08/30 11:30:32;;;;;;;4.33;3.93;;;20.50;99.90;;;;;;5028917;28;20463;-58
2023/08/30 11:33:00;;;;;;;5.00;4.63;;;20.60;99.90;;;;;;5010465;28;20493;-58
2023/08/30 11:35:28;;;;;;;5.23;4.83;;;20.60;99.90;;;;;;5020798;28;20509;-57
2023/08/30 11:37:56;;;;;;;4.20;3.80;;;20.60;99.90;;;;;;5031052;28;20562;-58
2023/08/30 11:40:25;;;;;;;6.00;4.60;;;20.60;99.90;;;;;;5030117;28;20577;-59
2023/08/30 11:42:55;;;;;;;4.90;4.50;;;20.60;99.90;;;;;;5027678;28;20554;-59
2023/08/30 11:45:23;;;;;;;5.30;4.80;;;20.70;99.90;;;;;;5018757;28;20490;-59
2023/08/30 11:47:52;;;;;;;4.43;4.10;;;20.70;99.90;;;;;;5010982;28;21454;-58
2023/08/30 11:50:21;;;;;;;4.60;4.20;;;20.80;99.90;;;;;;5018362;28;20497;-58
2023/08/30 11:52:52;;;;;;;5.00;4.40;;;20.80;99.90;;;;;;5013371;28;20853;-59
2023/08/30 11:55:22;;;;;;;4.87;4.57;;;20.80;99.90;;;;;;5005296;28;20490;-58
2023/08/30 11:57:51;;;;;;;5.20;4.77;;;20.80;99.90;;;;;;5027483;28;21363;-58
2023/08/30 12:00:21;;;;;;;5.90;4.67;;;20.80;99.90;;;;;;5029746;28;21046;-59
2023/08/30 12:02:49;;;;;;;4.97;4.57;;;20.90;99.90;;;;;;5023336;28;20470;-58
2023/08/30 12:05:17;;;;;;;4.50;4.10;;;21.00;99.90;;;;;;5035308;28;20483;-58
2023/08/30 12:07:47;;;;;;;5.60;5.13;;;21.00;99.90;;;;;;5037273;28;20575;-59
2023/08/30 12:10:19;;;;;;;4.93;4.53;;;21.00;99.90;;;;;;5023465;28;20640;-58
2023/08/30 12:12:47;;;;;;;5.30;4.90;;;21.10;99.90;;;;;;5028060;28;20908;-58
2023/08/30 12:15:15;;;;;;;4.97;4.57;;;21.20;99.90;;;;;;5025891;28;20545;-57
2023/08/30 12:17:45;;;;;;;4.77;4.43;;;21.30;99.90;;;;;;5022590;28;20507;-58
2023/08/30 12:20:20;;;;;;;4.77;4.30;;;21.30;99.90;;;;;;5029704;28;20486;-58
2023/08/30 12:22:50;;;;;;;5.73;4.13;;;21.40;99.90;;;;;;5036477;28;20505;-59
2023/08/30 12:25:19;;;;;;;4.90;4.53;;;21.40;99.90;;;;;;5027561;28;20564;-58
2023/08/30 12:27:48;;;;;;;6.60;6.00;;;21.30;99.90;;;;;;5031567;28;20510;-58
2023/08/30 12:30:17;;;;;;;5.33;4.83;;;21.00;99.90;;;;;;5030918;28;20582;-58
2023/08/30 12:32:46;;;;;;;5.70;4.97;;;20.80;99.90;;;;;;5035764;28;20505;-59
2023/08/30 12:35:15;;;;;;;5.87;5.47;;;20.80;99.90;;;;;;5026837;28;20919;-57
2023/08/30 12:37:43;;;;;;;6.03;5.50;;;20.70;99.90;;;;;;5027407;28;20474;-57
2023/08/30 12:40:12;;;;;;;5.43;5.07;;;20.60;99.90;;;;;;5036783;28;20477;-58
2023/08/30 12:42:40;;;;;;;5.70;5.00;;;20.70;99.90;;;;;;5031150;28;20481;-58
2023/08/30 12:45:10;;;;;;;5.23;4.73;;;20.90;99.90;;;;;;5030866;28;20490;-58
2023/08/30 12:47:38;;;;;;;6.37;5.73;;;21.10;99.90;;;;;;5032159;28;20869;-57
2023/08/30 12:50:09;;;;;;;5.53;5.07;;;21.30;99.90;;;;;;5040246;28;20533;-57
2023/08/30 12:52:37;;;;;;;5.40;4.90;;;21.40;99.90;;;;;;5025193;28;20496;-58
2023/08/30 12:55:05;;;;;;;5.87;5.37;;;21.40;99.90;;;;;;5040415;28;20953;-58